Share

Panora, IA

Stine Seed Co. (KIAADEL1) Elev 1024 ft | 41.71 °N, 94.06 °W | Change Station

Current weather conditions updated 2 seconds ago

Clear
Clear
53.0 °F
Feels Like 53.0 °F
N
0.0
Wind Variable Wind from North
Gusts 2.0 mph
Sunrise 6:34 AM
Sunset 8:00 PM
Moon Waning Gibbous

Tomorrow is forecast to be Much Warmer than today.

Pressure 30.24 in
Visibility 10.0 miles
Clouds Clear
Dew Point 32 °F
Humidity 44%
Rainfall 0.00 in
Snow Depth Not available.
UV 0.0 out of 16
Pollen 9.60 out of 12
Air Quality Not available.
Flu Activity Sporadic
METAR KBNW 180015Z AUTO 02008KT 10SM CLR 09/M02 A3024 RMK AO2

More Conditions Fewer Conditions

Pressure 30.24 in
Visibility 10.0 miles
Clouds Clear
Dew Point 32 °F
Humidity 44%
Rainfall 0.00 in
Snow Depth Not available.
UV 0.0 out of 16
Pollen 9.60 out of 12
Air Quality Not available.
Flu Activity Sporadic
METAR KBNW 180015Z AUTO 02008KT 10SM CLR 09/M02 A3024 RMK AO2

More Conditions Fewer Conditions

10-Day Forecast

Almanac

Astronomy

Apr. 17, 2014 Rise Set
Actual Time 6:34 AM CDT 8:00 PM CDT
Civil Twilight 6:05 AM CDT 8:29 PM CDT
Nautical Twilight 5:30 AM CDT 9:04 PM CDT
Astronomical Twilight 4:53 AM CDT 9:41 PM CDT
Moon 10:48 PM CDT (4/17) 8:05 AM CDT (4/17)
Length of Visible Light 14h 24m
Length of Day
13h 26m
Tomorrow will be 2m 39s longer.
Waning Gibbous, 92% of the Moon is Illuminated
Today
Waning Gibbous
Apr 22
Last Quarter
Apr 29
New
May 6
First Quarter
May 14
Full

Today's Extremes

State Highs State Lows

Community

  • Morning Light
    Morning Light
  • New Day
    New Day
  • Lake Michigan Sunrise
    Lake Michigan Sunrise
  • sunset from izmir, narlıdere
    sunset from izmir, narlıdere
  • oregon cherry
    oregon cherry

WunderPhotos

Upload Photos

1,702,187 photos uploaded!

WunderBlogs® & News

Nearby

Snow Depth

Station Depth Elevation
No new snow has been reported.

Coastal Water Temperatures

Place Temperature
No Stations Reporting

Earthquake Activity

City Distance Mag. Time & Date
No recent earthquake activity has been reported nearby.
Minimum magnitude displayed is 2.5.

Nearby Weather Stations

Station Location Temp. Dew Point Humidity Wind Precip. Elev Updated Type
Stine Seed Co., Adel, IA 53.0 °F 32 °F 44% North  at  0.0 mph 0.00 in / hr 1024 ft 7:27 PM CDT Rapid Fire
S.W. of Earlham, Earlham, IA 52.9 °F 29 °F 39% WNW  at  0.0 mph 0.00 in / hr 1125 ft 7:27 PM CDT Rapid Fire
Herbers Seed, Coon Rapids, IA 51.1 °F 30 °F 44% ESE  at  1.0 mph - / hr 1188 ft 7:26 PM CDT Normal
Waukee IA West Side, Rural, Waukee, IA 55.2 °F 29 °F 37% NNE  at  2.9 mph 0.00 in / hr 1027 ft 7:27 PM CDT Rapid Fire
Pine Ct in Van Meter, Van Meter, IA 52.2 °F 30 °F 42% ESE  at  0.9 mph 0.00 in / hr 942 ft 7:27 PM CDT Rapid Fire
MesoWest SCRAN1 , Scranton, IA 50 °F - - North  at  - 0.00 in / hr 1182 ft 4:20 PM CDT MADIS

Show More Stations Show Fewer Stations

What do you think?

We're not finished. Please let us know what you like, what you don't like, and what you are still missing.